VJT402 EGGW-CYYQ
Flight info
| Callsign | VJT402 |
|---|---|
| Flight time | N/A |
| Altitude | 32000 |
| Route | OLNEY T420 TNT DCT ABEVI DCT LORTA DCT GOW DCT ORSUM DCT ORTAV/M080F320 DCT KFV/M082F340 DCT SORIR DCT SS/N0470F380 DCT YZS/N0482F400 J540 YYL V303 YVC Q959 WAINN DCT IGVUX Q882 BIRKO BIRKO6 |
| Aircraft | CL60/M-SADE3FGHIJ3J4J7P2RWXY/HB1D1 |
Departure
| Time | N/A |
|---|---|
| Airport | London Luton Airport (EGGW) |
Arrival
| Time | 2026-05-06 00:49 |
|---|---|
| Airport | Churchill Airport (CYYQ) |
| Time | Latitude | Longitude | Altitude | Speed | Heading |
|---|---|---|---|---|---|
| 2026-05-06 00:21 | 58.65756 | -97.40431 | 20508 ft | 355 kts | 88° |
| 2026-05-06 00:21 | 58.65647 | -97.35680 | 19956 ft | 350 kts | 88° |
| 2026-05-06 00:21 | 58.65539 | -97.31067 | 19349 ft | 347 kts | 89° |
| 2026-05-06 00:21 | 58.65431 | -97.26482 | 18746 ft | 345 kts | 90° |
| 2026-05-06 00:22 | 58.65321 | -97.21918 | 18179 ft | 341 kts | 90° |
| 2026-05-06 00:22 | 58.65208 | -97.17320 | 17600 ft | 337 kts | 90° |
| 2026-05-06 00:22 | 58.65095 | -97.12764 | 17006 ft | 334 kts | 90° |
| 2026-05-06 00:22 | 58.64983 | -97.08308 | 16434 ft | 331 kts | 90° |
| 2026-05-06 00:23 | 58.64871 | -97.03939 | 15858 ft | 329 kts | 90° |
| 2026-05-06 00:23 | 58.64755 | -96.99438 | 15270 ft | 326 kts | 90° |
| 2026-05-06 00:23 | 58.64639 | -96.95026 | 14711 ft | 322 kts | 90° |
| 2026-05-06 00:23 | 58.64525 | -96.90739 | 14207 ft | 317 kts | 90° |
| 2026-05-06 00:24 | 58.64412 | -96.86571 | 14037 ft | 316 kts | 90° |
| 2026-05-06 00:24 | 58.64298 | -96.82352 | 14018 ft | 317 kts | 90° |
| 2026-05-06 00:24 | 58.64178 | -96.77986 | 14033 ft | 318 kts | 90° |
| 2026-05-06 00:24 | 58.64055 | -96.73608 | 14033 ft | 318 kts | 90° |
| 2026-05-06 00:25 | 58.63935 | -96.69253 | 14041 ft | 318 kts | 90° |
| 2026-05-06 00:25 | 58.63811 | -96.64888 | 14037 ft | 318 kts | 90° |
| 2026-05-06 00:25 | 58.63687 | -96.60614 | 14028 ft | 318 kts | 90° |
| 2026-05-06 00:25 | 58.63560 | -96.56312 | 14033 ft | 318 kts | 90° |
| 2026-05-06 00:26 | 58.63429 | -96.52004 | 14029 ft | 318 kts | 90° |
| 2026-05-06 00:26 | 58.63304 | -96.47694 | 13999 ft | 318 kts | 89° |
| 2026-05-06 00:26 | 58.63175 | -96.43459 | 14045 ft | 318 kts | 90° |
| 2026-05-06 00:26 | 58.63045 | -96.39216 | 14050 ft | 318 kts | 90° |
| 2026-05-06 00:27 | 58.62912 | -96.34960 | 14063 ft | 319 kts | 90° |
| 2026-05-06 00:27 | 58.62776 | -96.30698 | 14061 ft | 318 kts | 90° |
| 2026-05-06 00:27 | 58.62641 | -96.26447 | 14055 ft | 319 kts | 91° |
| 2026-05-06 00:27 | 58.62505 | -96.22185 | 14066 ft | 319 kts | 90° |
| 2026-05-06 00:28 | 58.62369 | -96.17992 | 14062 ft | 320 kts | 91° |
| 2026-05-06 00:28 | 58.62229 | -96.13701 | 14069 ft | 320 kts | 91° |
| 2026-05-06 00:28 | 58.62088 | -96.09458 | 14059 ft | 320 kts | 91° |
| 2026-05-06 00:28 | 58.61947 | -96.05224 | 14061 ft | 320 kts | 91° |
| 2026-05-06 00:29 | 58.61801 | -96.00917 | 14071 ft | 320 kts | 91° |
| 2026-05-06 00:29 | 58.61657 | -95.96699 | 14049 ft | 318 kts | 91° |
| 2026-05-06 00:29 | 58.61513 | -95.92567 | 13772 ft | 309 kts | 91° |
| 2026-05-06 00:29 | 58.61370 | -95.88444 | 13137 ft | 310 kts | 91° |
| 2026-05-06 00:30 | 58.61227 | -95.84375 | 12548 ft | 309 kts | 91° |
| 2026-05-06 00:30 | 58.61082 | -95.80267 | 11994 ft | 307 kts | 91° |
| 2026-05-06 00:30 | 58.60937 | -95.76210 | 11459 ft | 304 kts | 91° |
| 2026-05-06 00:30 | 58.60793 | -95.72216 | 10920 ft | 301 kts | 91° |
| 2026-05-06 00:31 | 58.60648 | -95.68233 | 10399 ft | 298 kts | 91° |
| 2026-05-06 00:31 | 58.60505 | -95.64332 | 10095 ft | 291 kts | 91° |
| 2026-05-06 00:31 | 58.60361 | -95.60416 | 10051 ft | 294 kts | 91° |
| 2026-05-06 00:31 | 58.60218 | -95.56540 | 10064 ft | 295 kts | 91° |
| 2026-05-06 00:32 | 58.60071 | -95.52614 | 10053 ft | 295 kts | 91° |
| 2026-05-06 00:32 | 58.59923 | -95.48694 | 10056 ft | 296 kts | 91° |
| 2026-05-06 00:32 | 58.59772 | -95.44737 | 10030 ft | 296 kts | 91° |
| 2026-05-06 00:32 | 58.59622 | -95.40809 | 9992 ft | 295 kts | 91° |
| 2026-05-06 00:33 | 58.59471 | -95.36913 | 9982 ft | 295 kts | 91° |
| 2026-05-06 00:33 | 58.59319 | -95.33030 | 9982 ft | 295 kts | 91° |
| 2026-05-06 00:33 | 58.59164 | -95.29065 | 9967 ft | 295 kts | 91° |
| 2026-05-06 00:33 | 58.59010 | -95.25192 | 9979 ft | 296 kts | 91° |
| 2026-05-06 00:34 | 58.58853 | -95.21259 | 9970 ft | 296 kts | 91° |
| 2026-05-06 00:34 | 58.58694 | -95.17314 | 9969 ft | 295 kts | 91° |
| 2026-05-06 00:34 | 58.58534 | -95.13378 | 9970 ft | 296 kts | 92° |
| 2026-05-06 00:34 | 58.58373 | -95.09435 | 9967 ft | 296 kts | 91° |
| 2026-05-06 00:35 | 58.58212 | -95.05514 | 9969 ft | 296 kts | 91° |
| 2026-05-06 00:35 | 58.58050 | -95.01627 | 9959 ft | 296 kts | 91° |
| 2026-05-06 00:35 | 58.57885 | -94.97678 | 9969 ft | 296 kts | 91° |
| 2026-05-06 00:35 | 58.57720 | -94.93771 | 9961 ft | 296 kts | 91° |
| 2026-05-06 00:36 | 58.57553 | -94.89822 | 9969 ft | 295 kts | 91° |
| 2026-05-06 00:36 | 58.57387 | -94.85938 | 9965 ft | 296 kts | 91° |
| 2026-05-06 00:36 | 58.57218 | -94.82015 | 9958 ft | 296 kts | 91° |
| 2026-05-06 00:36 | 58.57044 | -94.77998 | 9957 ft | 296 kts | 91° |
| 2026-05-06 00:37 | 58.56872 | -94.74063 | 9958 ft | 296 kts | 92° |
| 2026-05-06 00:37 | 58.56696 | -94.70053 | 9956 ft | 296 kts | 91° |
| 2026-05-06 00:37 | 58.56520 | -94.66095 | 9969 ft | 296 kts | 92° |
| 2026-05-06 00:37 | 58.56343 | -94.62112 | 9949 ft | 297 kts | 91° |
| 2026-05-06 00:38 | 58.56161 | -94.58069 | 9967 ft | 297 kts | 91° |
| 2026-05-06 00:38 | 58.55982 | -94.54105 | 9936 ft | 296 kts | 92° |
| 2026-05-06 00:38 | 58.55801 | -94.50095 | 9040 ft | 313 kts | 91° |
| 2026-05-06 00:38 | 58.55613 | -94.45973 | 7622 ft | 319 kts | 91° |
| 2026-05-06 00:39 | 58.55420 | -94.41795 | 6259 ft | 319 kts | 91° |
| 2026-05-06 00:39 | 58.55224 | -94.37609 | 4993 ft | 312 kts | 91° |
| 2026-05-06 00:39 | 58.55032 | -94.33591 | 4285 ft | 291 kts | 91° |
| 2026-05-06 00:39 | 58.54848 | -94.29878 | 4035 ft | 261 kts | 91° |
| 2026-05-06 00:40 | 58.54685 | -94.26602 | 4024 ft | 230 kts | 90° |
| 2026-05-06 00:40 | 58.54540 | -94.23740 | 4040 ft | 203 kts | 89° |
| 2026-05-06 00:40 | 58.54415 | -94.21176 | 4051 ft | 187 kts | 88° |
| 2026-05-06 00:40 | 58.54299 | -94.18756 | 4004 ft | 180 kts | 88° |
| 2026-05-06 00:41 | 58.54189 | -94.16364 | 3995 ft | 180 kts | 88° |
| 2026-05-06 00:41 | 58.54076 | -94.13996 | 3987 ft | 177 kts | 87° |
| 2026-05-06 00:41 | 58.53966 | -94.11661 | 3988 ft | 178 kts | 88° |
| 2026-05-06 00:41 | 58.53854 | -94.09290 | 3989 ft | 179 kts | 88° |
| 2026-05-06 00:42 | 58.53739 | -94.06892 | 3982 ft | 179 kts | 88° |
| 2026-05-06 00:42 | 58.53830 | -94.04582 | 3991 ft | 171 kts | 64° |
| 2026-05-06 00:42 | 58.54346 | -94.02561 | 3991 ft | 168 kts | 57° |
| 2026-05-06 00:42 | 58.54882 | -94.00562 | 3998 ft | 168 kts | 58° |
| 2026-05-06 00:43 | 58.55413 | -93.98573 | 3978 ft | 167 kts | 59° |
| 2026-05-06 00:43 | 58.55909 | -93.96683 | 3708 ft | 156 kts | 56° |
| 2026-05-06 00:43 | 58.56403 | -93.94833 | 3113 ft | 156 kts | 57° |
| 2026-05-06 00:43 | 58.56923 | -93.92969 | 2983 ft | 157 kts | 52° |
| 2026-05-06 00:44 | 58.57778 | -93.91782 | 2982 ft | 155 kts | 14° |
| 2026-05-06 00:44 | 58.58828 | -93.92058 | 2994 ft | 161 kts | 340° |
| 2026-05-06 00:44 | 58.59804 | -93.93024 | 2888 ft | 149 kts | 338° |
| 2026-05-06 00:44 | 58.60724 | -93.93943 | 2234 ft | 152 kts | 338° |
| 2026-05-06 00:45 | 58.61666 | -93.94875 | 1988 ft | 154 kts | 338° |
| 2026-05-06 00:45 | 58.62622 | -93.95821 | 1996 ft | 155 kts | 338° |
| 2026-05-06 00:45 | 58.63578 | -93.96769 | 1992 ft | 156 kts | 338° |
| 2026-05-06 00:45 | 58.64551 | -93.97732 | 1991 ft | 156 kts | 337° |
| 2026-05-06 00:46 | 58.65511 | -93.98685 | 1991 ft | 154 kts | 337° |
| 2026-05-06 00:46 | 58.66342 | -93.99532 | 1946 ft | 120 kts | 338° |
| 2026-05-06 00:46 | 58.67061 | -94.00227 | 1728 ft | 115 kts | 341° |
| 2026-05-06 00:46 | 58.67763 | -94.00748 | 1418 ft | 108 kts | 346° |
| 2026-05-06 00:47 | 58.68471 | -94.01200 | 936 ft | 98 kts | 340° |
| 2026-05-06 00:47 | 58.69158 | -94.01682 | 732 ft | 105 kts | 341° |
| 2026-05-06 00:47 | 58.69736 | -94.02552 | 641 ft | 108 kts | 322° |
| 2026-05-06 00:47 | 58.70334 | -94.03462 | 612 ft | 110 kts | 330° |
| 2026-05-06 00:48 | 58.71007 | -94.04216 | 488 ft | 110 kts | 334° |
| 2026-05-06 00:48 | 58.71660 | -94.04872 | 289 ft | 99 kts | 335° |
| 2026-05-06 00:48 | 58.72252 | -94.05458 | 120 ft | 98 kts | 334° |
| 2026-05-06 00:48 | 58.72836 | -94.06036 | 55 ft | 80 kts | 332° |
| 2026-05-06 00:49 | 58.73172 | -94.06376 | 55 ft | 37 kts | 333° |
| 2026-05-06 00:49 | 58.73398 | -94.06597 | 55 ft | 36 kts | 331° |
| 2026-05-06 00:49 | 58.73623 | -94.06824 | 57 ft | 38 kts | 333° |
| 2026-05-06 00:49 | 58.73874 | -94.07053 | 59 ft | 39 kts | 327° |
| 2026-05-06 00:50 | 58.74128 | -94.07328 | 62 ft | 45 kts | 331° |
| 2026-05-06 00:50 | 58.74391 | -94.07612 | 66 ft | 22 kts | 335° |
| 2026-05-06 00:50 | 58.74507 | -94.07649 | 69 ft | 10 kts | 57° |
| 2026-05-06 00:50 | 58.74555 | -94.07484 | 70 ft | 16 kts | 59° |
| 2026-05-06 00:51 | 58.74653 | -94.07364 | 72 ft | 18 kts | 23° |
| 2026-05-06 00:51 | 58.74767 | -94.07370 | 74 ft | 7 kts | 342° |
| 2026-05-06 00:51 | 58.74830 | -94.07410 | 76 ft | 11 kts | 342° |
| 2026-05-06 00:51 | 58.74913 | -94.07410 | 79 ft | 13 kts | 42° |
| 2026-05-06 00:52 | 58.74926 | -94.07289 | 80 ft | 11 kts | 193° |
| 2026-05-06 00:52 | 58.74907 | -94.07331 | 79 ft | 0 kts | 267° |